createdAt,value
2023-05-17T00:04:15.433Z,94.25
2023-05-17T00:09:22.804Z,94.21
2023-05-17T00:14:26.864Z,94.16
2023-05-17T00:19:31.254Z,94.19
2023-05-17T00:24:33.497Z,94.12
2023-05-17T00:29:35.709Z,94.05
2023-05-17T00:34:41.699Z,94.05
2023-05-17T00:39:46.052Z,94.05
2023-05-17T00:44:53.050Z,94.16
2023-05-17T00:49:57.550Z,94.14
2023-05-17T00:55:06.502Z,94.21
2023-05-17T01:00:09.114Z,94.22
2023-05-17T01:05:15.794Z,94.28
2023-05-17T01:10:21.469Z,94.38
2023-05-17T01:15:28.118Z,94.33
2023-05-17T01:20:38.972Z,94.30
2023-05-17T01:26:13.420Z,94.25
2023-05-17T01:31:19.190Z,94.27
2023-05-17T01:36:26.447Z,94.29
2023-05-17T01:41:43.860Z,94.13
2023-05-17T01:47:16.689Z,93.90
2023-05-17T01:52:35.896Z,93.97
2023-05-17T01:57:44.983Z,93.95
2023-05-17T02:02:50.107Z,93.97
2023-05-17T02:07:54.326Z,93.83
2023-05-17T02:13:02.450Z,93.86
2023-05-17T02:18:04.602Z,93.74
2023-05-17T02:23:06.911Z,93.61
2023-05-17T02:28:10.368Z,93.72
2023-05-17T02:33:17.801Z,93.78
2023-05-17T02:38:28.522Z,93.85
2023-05-17T02:43:34.054Z,93.87
2023-05-17T02:48:36.264Z,93.98
2023-05-17T02:53:41.797Z,94.07
2023-05-17T02:58:49.061Z,93.99
2023-05-17T03:03:56.897Z,93.86
2023-05-17T03:09:03.149Z,93.87
2023-05-17T03:14:12.419Z,93.84
2023-05-17T03:19:14.710Z,93.94
2023-05-17T03:24:22.094Z,94.04
2023-05-17T03:29:25.752Z,94.02
2023-05-17T03:34:27.744Z,93.99
2023-05-17T03:39:32.145Z,94.00
2023-05-17T03:44:34.763Z,94.03
2023-05-17T03:49:41.797Z,93.94
2023-05-17T03:54:52.771Z,93.98
2023-05-17T03:59:55.323Z,94.07
2023-05-17T04:04:57.899Z,94.12
2023-05-17T04:10:02.886Z,94.07
2023-05-17T04:15:19.176Z,94.03
2023-05-17T04:20:24.672Z,94.10
2023-05-17T04:25:28.020Z,94.23
2023-05-17T04:30:30.741Z,94.20
2023-05-17T04:35:39.008Z,94.18
2023-05-17T04:40:42.711Z,94.10
2023-05-17T04:45:47.979Z,94.10
2023-05-17T04:50:50.993Z,94.19
2023-05-17T04:55:53.211Z,94.24
2023-05-17T05:00:56.751Z,94.31
2023-05-17T05:05:59.557Z,94.30
2023-05-17T05:11:02.946Z,94.33
2023-05-17T05:16:06.423Z,94.28
2023-05-17T05:21:11.444Z,94.39
2023-05-17T05:26:14.513Z,94.39
2023-05-17T05:31:17.441Z,94.46
2023-05-17T05:36:29.128Z,94.47
2023-05-17T05:41:38.698Z,94.52
2023-05-17T05:46:41.665Z,94.49
2023-05-17T05:52:05.164Z,94.42
2023-05-17T05:57:09.629Z,94.39
2023-05-17T06:02:12.328Z,94.29
2023-05-17T06:07:16.044Z,94.18
2023-05-17T06:12:23.482Z,94.20
2023-05-17T06:17:25.609Z,94.23
2023-05-17T06:22:27.889Z,94.24
2023-05-17T06:27:33.337Z,94.15
2023-05-17T06:32:35.903Z,94.33
2023-05-17T06:37:38.908Z,94.34
2023-05-17T06:42:41.534Z,94.31
2023-05-17T06:47:46.857Z,94.41
2023-05-17T06:52:49.284Z,94.51
2023-05-17T06:57:53.372Z,94.60
2023-05-17T07:02:55.640Z,94.60
2023-05-17T07:08:00.976Z,94.57
2023-05-17T07:13:03.642Z,94.61
2023-05-17T07:18:05.731Z,94.68
2023-05-17T07:23:07.809Z,94.81
2023-05-17T07:28:12.063Z,94.75
2023-05-17T07:33:14.222Z,94.63
2023-05-17T07:38:27.589Z,94.61
2023-05-17T07:43:30.573Z,94.47
2023-05-17T07:48:37.491Z,94.35
2023-05-17T07:53:39.622Z,94.35
2023-05-17T07:58:41.730Z,94.37
2023-05-17T08:03:48.314Z,94.39
2023-05-17T08:08:50.956Z,94.47
2023-05-17T08:13:56.901Z,94.58
2023-05-17T08:19:02.063Z,94.64
2023-05-17T08:24:07.135Z,94.44
2023-05-17T08:29:09.955Z,94.54
2023-05-17T08:34:15.455Z,94.48
2023-05-17T08:39:23.311Z,94.59
2023-05-17T08:44:28.430Z,94.57
2023-05-17T08:49:34.300Z,94.58
2023-05-17T08:54:37.533Z,94.62
2023-05-17T08:59:45.410Z,94.57
2023-05-17T09:04:55.693Z,94.45
2023-05-17T09:09:58.518Z,94.39
2023-05-17T09:15:15.065Z,94.32
2023-05-17T09:20:35.986Z,94.18
2023-05-17T09:25:47.256Z,93.81
2023-05-17T09:30:50.073Z,93.69
2023-05-17T09:35:53.125Z,93.88
2023-05-17T09:40:56.978Z,94.01
2023-05-17T09:45:59.404Z,94.11
2023-05-17T09:51:02.137Z,94.20
2023-05-17T09:56:05.820Z,94.01
2023-05-17T10:01:09.889Z,94.07
2023-05-17T10:06:27.718Z,94.20
2023-05-17T10:11:37.744Z,94.08
2023-05-17T10:16:40.076Z,94.08
2023-05-17T10:21:44.215Z,94.10
2023-05-17T10:26:46.522Z,94.26
2023-05-17T10:31:52.733Z,94.16
2023-05-17T10:36:55.661Z,94.21
2023-05-17T10:42:14.228Z,94.27
2023-05-17T10:47:18.054Z,94.39
2023-05-17T10:52:24.034Z,94.35
2023-05-17T10:57:49.666Z,94.22
2023-05-17T11:03:17.209Z,94.23
2023-05-17T11:08:24.535Z,94.32
2023-05-17T11:13:29.940Z,94.41
2023-05-17T11:18:52.695Z,94.50
2023-05-17T11:23:58.784Z,94.47
2023-05-17T11:29:15.145Z,94.45
2023-05-17T11:34:25.088Z,94.33
2023-05-17T11:39:27.545Z,94.47
2023-05-17T11:44:32.426Z,94.56
2023-05-17T11:49:37.769Z,94.62
2023-05-17T11:54:42.895Z,94.57
2023-05-17T11:59:46.315Z,94.46
2023-05-17T12:04:48.591Z,94.52
2023-05-17T12:09:56.748Z,94.56
2023-05-17T12:15:01.543Z,94.38
2023-05-17T12:20:10.440Z,94.26
2023-05-17T12:25:25.394Z,94.28
2023-05-17T12:30:28.029Z,94.43
2023-05-17T12:35:31.850Z,94.56
2023-05-17T12:40:42.674Z,94.60
2023-05-17T12:45:47.869Z,94.64
2023-05-17T12:50:55.781Z,94.71
2023-05-17T12:56:00.727Z,94.69
2023-05-17T13:01:10.662Z,94.78
2023-05-17T13:06:13.236Z,94.79
2023-05-17T13:11:19.090Z,94.81
2023-05-17T13:16:30.005Z,94.79
2023-05-17T13:21:34.874Z,94.70
2023-05-17T13:26:37.357Z,94.67
2023-05-17T13:31:42.683Z,94.65
2023-05-17T13:36:48.068Z,94.74
2023-05-17T13:41:50.283Z,94.76
2023-05-17T13:46:55.368Z,94.81
2023-05-17T13:51:57.773Z,94.87
2023-05-17T13:56:59.743Z,94.90
2023-05-17T14:02:04.774Z,94.93
2023-05-17T14:07:07.219Z,94.95
2023-05-17T14:12:10.140Z,94.98
2023-05-17T14:17:12.582Z,94.96
2023-05-17T14:22:14.914Z,95.06
2023-05-17T14:27:17.558Z,95.07
2023-05-17T14:32:19.624Z,95.09
2023-05-17T14:37:22.059Z,95.16
2023-05-17T14:42:24.559Z,95.20
2023-05-17T14:47:26.916Z,95.20
2023-05-17T14:52:29.353Z,95.17
2023-05-17T14:57:31.725Z,95.16
2023-05-17T15:02:33.801Z,95.13
2023-05-17T15:07:36.227Z,95.10
2023-05-17T15:12:39.123Z,95.13
2023-05-17T15:17:41.756Z,95.15
2023-05-17T15:22:44.529Z,95.21
2023-05-17T15:27:49.691Z,95.22
2023-05-17T15:32:52.080Z,95.19
2023-05-17T15:37:57.912Z,95.24
2023-05-17T15:43:00.038Z,95.20
2023-05-17T15:48:02.524Z,95.18
2023-05-17T15:53:05.300Z,95.16
2023-05-17T15:58:09.506Z,95.17
2023-05-17T16:03:12.540Z,95.17
2023-05-17T16:08:14.517Z,95.22
2023-05-17T16:13:16.810Z,95.29
2023-05-17T16:18:19.470Z,95.30
2023-05-17T16:23:22.506Z,95.25
2023-05-17T16:28:25.229Z,95.23
2023-05-17T16:33:27.585Z,95.26
2023-05-17T16:38:30.011Z,95.28
2023-05-17T16:43:32.139Z,95.29
2023-05-17T16:48:34.072Z,95.27
2023-05-17T16:53:36.455Z,95.31
2023-05-17T16:58:39.226Z,95.27
2023-05-17T17:03:41.575Z,95.19
2023-05-17T17:08:43.493Z,95.22
2023-05-17T17:13:46.097Z,95.25
2023-05-17T17:18:49.662Z,95.28
2023-05-17T17:23:52.282Z,95.31
2023-05-17T17:28:54.502Z,95.30
2023-05-17T17:33:56.652Z,95.26
2023-05-17T17:38:58.532Z,95.23
2023-05-17T17:44:01.533Z,95.24
2023-05-17T17:49:03.613Z,95.30
2023-05-17T17:54:07.357Z,95.34
2023-05-17T17:59:09.255Z,95.29
2023-05-17T18:04:11.329Z,95.26
2023-05-17T18:09:13.858Z,95.29
2023-05-17T18:14:15.823Z,95.25
2023-05-17T18:19:17.859Z,95.18
2023-05-17T18:24:20.600Z,95.14
2023-05-17T18:29:22.470Z,95.20
2023-05-17T18:34:25.672Z,95.24
2023-05-17T18:39:31.865Z,95.19
2023-05-17T18:44:35.325Z,95.15
2023-05-17T18:49:41.240Z,95.23
2023-05-17T18:54:43.951Z,95.20
2023-05-17T18:59:46.133Z,95.15
2023-05-17T19:04:48.434Z,95.16
2023-05-17T19:09:51.747Z,95.14
2023-05-17T19:14:53.695Z,95.15
2023-05-17T19:19:55.933Z,95.16
2023-05-17T19:24:57.793Z,95.21
2023-05-17T19:29:59.788Z,95.18
2023-05-17T19:35:02.310Z,95.17
2023-05-17T19:40:07.900Z,95.11
2023-05-17T19:45:11.702Z,95.12
2023-05-17T19:50:15.264Z,95.20
2023-05-17T19:55:22.207Z,95.23
2023-05-17T20:00:24.707Z,95.22
2023-05-17T20:05:27.965Z,95.22
2023-05-17T20:10:33.718Z,95.31
2023-05-17T20:15:43.990Z,95.32
2023-05-17T20:20:46.162Z,95.23
2023-05-17T20:25:49.991Z,95.29
2023-05-17T20:30:52.145Z,95.35
2023-05-17T20:35:59.346Z,95.27
2023-05-17T20:41:04.043Z,95.28
2023-05-17T20:46:09.833Z,95.24
2023-05-17T20:51:12.614Z,95.22
2023-05-17T20:56:17.790Z,95.34
2023-05-17T21:01:19.812Z,95.34
2023-05-17T21:06:30.261Z,95.33
2023-05-17T21:11:38.497Z,95.37
2023-05-17T21:16:40.851Z,95.34
2023-05-17T21:21:50.748Z,95.35
2023-05-17T21:26:53.310Z,95.25
2023-05-17T21:31:57.147Z,95.22
2023-05-17T21:36:59.590Z,95.21
2023-05-17T21:42:03.454Z,95.15
2023-05-17T21:47:10.647Z,95.19
2023-05-17T21:52:16.715Z,95.30
2023-05-17T21:57:21.151Z,95.21
2023-05-17T22:02:25.806Z,95.16
2023-05-17T22:07:28.653Z,95.32
2023-05-17T22:12:35.063Z,95.26
2023-05-17T22:17:47.810Z,95.29
2023-05-17T22:22:53.934Z,95.34
2023-05-17T22:27:56.045Z,95.34
2023-05-17T22:32:58.137Z,95.36
2023-05-17T22:38:00.451Z,95.38
2023-05-17T22:43:02.676Z,95.35
2023-05-17T22:48:08.232Z,95.37
2023-05-17T22:53:13.977Z,95.40
2023-05-17T22:58:16.274Z,95.37
2023-05-17T23:03:21.015Z,95.35
2023-05-17T23:08:24.311Z,95.33
2023-05-17T23:13:30.593Z,95.33
2023-05-17T23:18:33.263Z,95.32
2023-05-17T23:23:38.243Z,95.35
2023-05-17T23:28:41.392Z,95.30
2023-05-17T23:33:44.065Z,95.34
2023-05-17T23:38:47.861Z,95.31
2023-05-17T23:43:57.211Z,95.29
2023-05-17T23:49:12.867Z,95.31
2023-05-17T23:54:16.065Z,95.28
2023-05-17T23:59:18.925Z,95.31
